createdAt,value
2017-07-06T00:00:42.449Z,4.10
2017-07-06T00:03:08.997Z,3.80
2017-07-06T00:05:35.493Z,4.67
2017-07-06T00:08:02.732Z,4.57
2017-07-06T00:10:29.246Z,4.10
2017-07-06T00:12:55.733Z,3.87
2017-07-06T00:15:22.502Z,4.27
2017-07-06T00:17:48.976Z,3.60
2017-07-06T00:20:16.190Z,4.03
2017-07-06T00:22:42.684Z,4.00
2017-07-06T00:25:09.215Z,4.00
2017-07-06T00:27:35.900Z,3.90
2017-07-06T00:30:02.431Z,4.00
2017-07-06T00:32:28.912Z,3.80
2017-07-06T00:34:55.431Z,5.07
2017-07-06T00:37:22.637Z,4.17
2017-07-06T00:39:49.392Z,4.40
2017-07-06T00:42:15.889Z,3.50
2017-07-06T00:44:42.385Z,4.40
2017-07-06T00:47:09.605Z,5.57
2017-07-06T00:49:36.068Z,3.70
2017-07-06T00:52:03.578Z,4.33
2017-07-06T00:54:30.057Z,3.67
2017-07-06T00:56:57.274Z,3.97
2017-07-06T00:59:23.826Z,4.33
2017-07-06T01:01:50.352Z,3.70
2017-07-06T01:04:16.899Z,3.90
2017-07-06T01:06:43.703Z,4.43
2017-07-06T01:09:10.167Z,3.93
2017-07-06T01:11:36.648Z,4.20
2017-07-06T01:14:03.165Z,3.87
2017-07-06T01:16:29.651Z,3.60
2017-07-06T01:18:56.261Z,4.17
2017-07-06T01:21:22.735Z,3.40
2017-07-06T01:23:49.951Z,4.40
2017-07-06T01:26:16.494Z,3.63
2017-07-06T01:28:42.950Z,3.77
2017-07-06T01:31:09.469Z,3.20
2017-07-06T01:33:36.193Z,3.50
2017-07-06T01:36:09.695Z,3.57
2017-07-06T01:38:36.236Z,3.50
2017-07-06T01:41:02.763Z,4.30
2017-07-06T01:43:29.292Z,3.43
2017-07-06T01:45:55.851Z,3.63
2017-07-06T01:48:22.362Z,3.03
2017-07-06T01:50:48.934Z,3.80
2017-07-06T01:53:16.183Z,3.20
2017-07-06T01:55:42.753Z,2.90
2017-07-06T01:58:09.327Z,2.87
2017-07-06T02:00:35.906Z,4.10
2017-07-06T02:03:02.433Z,4.20
2017-07-06T02:05:29.099Z,3.60
2017-07-06T02:07:55.590Z,3.97
2017-07-06T02:10:22.796Z,3.03
2017-07-06T02:12:49.300Z,3.10
2017-07-06T02:15:15.798Z,3.60
2017-07-06T02:17:43.025Z,3.33
2017-07-06T02:20:09.499Z,3.60
2017-07-06T02:22:36.893Z,3.00
2017-07-06T02:25:03.377Z,3.40
2017-07-06T02:27:29.842Z,3.03
2017-07-06T02:29:56.301Z,3.50
2017-07-06T02:32:22.804Z,3.33
2017-07-06T02:34:49.316Z,3.60
2017-07-06T02:37:15.809Z,3.00
2017-07-06T02:39:42.548Z,3.77
2017-07-06T02:42:09.077Z,3.83
2017-07-06T02:44:35.545Z,2.80
2017-07-06T02:47:02.803Z,3.73
2017-07-06T02:49:29.264Z,3.00
2017-07-06T02:51:55.737Z,3.10
2017-07-06T03:00:18.237Z,3.20
2017-07-06T03:02:44.759Z,3.20
2017-07-06T03:05:12.445Z,2.57
2017-07-06T03:07:38.949Z,3.13
2017-07-06T03:10:06.235Z,2.50
2017-07-06T03:12:32.839Z,3.13
2017-07-06T03:15:00.087Z,3.40
2017-07-06T03:17:27.373Z,3.20
2017-07-06T03:19:53.900Z,2.83
2017-07-06T03:22:20.430Z,3.10
2017-07-06T03:24:46.955Z,3.13
2017-07-06T03:27:13.535Z,2.80
2017-07-06T03:29:40.083Z,2.93
2017-07-06T03:32:06.584Z,2.30
2017-07-06T03:34:33.272Z,2.60
2017-07-06T03:37:00.536Z,2.57
2017-07-06T03:39:27.828Z,2.77
2017-07-06T03:41:54.342Z,3.07
2017-07-06T03:44:20.844Z,2.60
2017-07-06T03:46:48.154Z,2.50
2017-07-06T03:49:14.708Z,2.60
2017-07-06T03:51:41.227Z,2.70
2017-07-06T03:54:07.816Z,2.50
2017-07-06T03:56:34.348Z,2.83
2017-07-06T03:59:00.964Z,3.80
2017-07-06T04:01:28.241Z,2.90
2017-07-06T04:03:54.811Z,2.50
2017-07-06T04:06:28.426Z,3.07
2017-07-06T04:08:55.001Z,2.70
2017-07-06T04:11:21.519Z,2.90
2017-07-06T04:13:48.787Z,3.30
2017-07-06T04:16:15.635Z,2.50
2017-07-06T04:18:42.191Z,2.50
2017-07-06T04:21:08.779Z,2.17
2017-07-06T04:23:36.077Z,2.73
2017-07-06T04:26:02.615Z,2.57
2017-07-06T04:28:29.167Z,2.57
2017-07-06T04:30:55.707Z,3.00
2017-07-06T04:33:22.206Z,3.00
2017-07-06T04:35:49.052Z,3.50
2017-07-06T04:38:15.558Z,3.30
2017-07-06T04:40:42.070Z,2.90
2017-07-06T04:43:08.613Z,2.63
2017-07-06T04:45:35.875Z,2.67
2017-07-06T04:48:02.498Z,2.00
2017-07-06T04:50:29.757Z,3.77
2017-07-06T04:52:56.268Z,2.67
2017-07-06T04:55:23.575Z,3.03
2017-07-06T04:57:50.116Z,2.03
2017-07-06T05:00:16.899Z,2.47
2017-07-06T05:02:44.178Z,2.53
2017-07-06T05:05:10.679Z,2.47
2017-07-06T05:07:38.034Z,2.00
2017-07-06T05:10:04.578Z,1.90
2017-07-06T05:12:31.966Z,2.13
2017-07-06T05:14:58.555Z,2.70
2017-07-06T05:17:25.835Z,2.57
2017-07-06T05:19:52.563Z,2.20
2017-07-06T05:22:19.069Z,3.00
2017-07-06T05:24:45.575Z,2.90
2017-07-06T05:27:12.363Z,2.60
2017-07-06T05:29:39.624Z,3.40
2017-07-06T05:32:06.148Z,2.53
2017-07-06T05:34:32.706Z,2.50
2017-07-06T05:36:59.240Z,2.43
2017-07-06T05:39:25.809Z,3.00
2017-07-06T05:41:52.340Z,2.70
2017-07-06T05:44:18.864Z,3.03
2017-07-06T05:46:45.478Z,2.70
2017-07-06T05:49:12.028Z,2.30
2017-07-06T05:51:38.563Z,2.10
2017-07-06T05:54:05.091Z,2.77
2017-07-06T05:56:31.679Z,2.40
2017-07-06T05:58:58.955Z,2.57
2017-07-06T06:01:25.507Z,2.90
2017-07-06T06:03:52.064Z,2.23
2017-07-06T06:06:18.611Z,2.70
2017-07-06T06:08:45.226Z,2.60
2017-07-06T06:11:11.781Z,2.60
2017-07-06T06:13:38.305Z,2.27
2017-07-06T06:16:04.880Z,1.90
2017-07-06T06:18:32.159Z,2.00
2017-07-06T06:20:58.660Z,2.73
2017-07-06T06:23:25.948Z,2.17
2017-07-06T06:25:52.494Z,2.00
2017-07-06T06:28:19.045Z,2.50
2017-07-06T06:30:45.576Z,1.90
2017-07-06T06:33:12.166Z,2.20
2017-07-06T06:35:38.728Z,2.47
2017-07-06T06:38:05.235Z,2.23
2017-07-06T06:40:31.779Z,2.50
2017-07-06T06:42:58.282Z,2.23
2017-07-06T06:45:25.562Z,2.30
2017-07-06T06:47:52.179Z,2.77
2017-07-06T06:50:18.723Z,2.70
2017-07-06T06:52:45.240Z,2.43
2017-07-06T06:55:12.051Z,2.70
2017-07-06T06:57:38.562Z,2.40
2017-07-06T07:00:05.132Z,2.83
2017-07-06T07:02:32.584Z,2.30
2017-07-06T07:04:59.868Z,2.70
2017-07-06T07:07:26.379Z,2.70
2017-07-06T07:09:53.675Z,2.63
2017-07-06T07:12:20.186Z,2.60
2017-07-06T07:14:46.766Z,2.77
2017-07-06T07:17:13.275Z,2.70
2017-07-06T07:19:39.794Z,2.43
2017-07-06T07:22:07.149Z,1.97
2017-07-06T07:24:33.672Z,2.67
2017-07-06T07:27:00.335Z,2.70
2017-07-06T07:29:26.845Z,2.93
2017-07-06T07:31:53.391Z,3.00
2017-07-06T07:34:20.189Z,3.10
2017-07-06T07:36:47.444Z,2.83
2017-07-06T07:39:13.974Z,2.40
2017-07-06T07:41:41.263Z,3.20
2017-07-06T07:44:07.790Z,2.43
2017-07-06T07:46:34.322Z,2.47
2017-07-06T07:49:01.030Z,2.20
2017-07-06T07:51:28.287Z,3.33
2017-07-06T07:53:55.065Z,2.63
2017-07-06T07:56:21.906Z,2.70
2017-07-06T07:58:48.471Z,2.83
2017-07-06T08:01:15.038Z,2.83
2017-07-06T08:03:41.606Z,2.20
2017-07-06T08:06:08.126Z,2.33
2017-07-06T08:08:34.684Z,2.97
2017-07-06T08:11:01.210Z,2.43
2017-07-06T08:13:27.763Z,3.10
2017-07-06T08:15:55.118Z,2.77
2017-07-06T08:18:21.649Z,2.63
2017-07-06T08:20:48.212Z,2.60
2017-07-06T08:23:15.494Z,2.20
2017-07-06T08:25:42.019Z,2.80
2017-07-06T08:28:08.575Z,2.30
2017-07-06T08:30:35.098Z,2.50
2017-07-06T08:33:01.640Z,2.60
2017-07-06T08:35:28.187Z,2.73
2017-07-06T08:37:54.694Z,1.93
2017-07-06T08:40:21.228Z,2.77
2017-07-06T08:42:47.768Z,3.27
2017-07-06T08:45:14.275Z,2.97
2017-07-06T08:47:41.575Z,2.63
2017-07-06T08:50:08.082Z,2.23
2017-07-06T08:52:34.907Z,2.30
2017-07-06T08:55:01.425Z,2.20
2017-07-06T08:57:27.963Z,2.67
2017-07-06T08:59:55.234Z,2.23
2017-07-06T09:02:21.798Z,2.67
2017-07-06T09:04:48.456Z,2.63
2017-07-06T09:07:14.980Z,3.03
2017-07-06T09:09:41.512Z,3.00
2017-07-06T09:12:08.108Z,2.37
2017-07-06T09:14:34.642Z,2.57
2017-07-06T09:17:01.181Z,2.43
2017-07-06T09:19:27.743Z,2.30
2017-07-06T09:21:54.414Z,2.33
2017-07-06T09:24:21.678Z,1.93
2017-07-06T09:26:48.962Z,1.90
2017-07-06T09:29:15.500Z,2.20
2017-07-06T09:31:41.997Z,2.10
2017-07-06T09:34:08.689Z,2.57
2017-07-06T09:36:35.277Z,2.37
2017-07-06T09:39:01.812Z,2.00
2017-07-06T09:41:28.432Z,2.33
2017-07-06T09:43:55.689Z,2.03
2017-07-06T09:46:22.944Z,2.10
2017-07-06T09:48:49.531Z,2.43
2017-07-06T09:51:16.101Z,2.37
2017-07-06T09:53:43.403Z,2.17
2017-07-06T09:56:09.941Z,2.40
2017-07-06T09:58:36.549Z,2.47
2017-07-06T10:01:03.140Z,2.10
2017-07-06T10:03:29.731Z,2.50
2017-07-06T10:05:56.244Z,2.20
2017-07-06T10:08:22.757Z,2.50
2017-07-06T10:10:50.054Z,2.40
2017-07-06T10:13:16.599Z,2.50
2017-07-06T10:15:43.177Z,2.40
2017-07-06T10:18:10.427Z,2.73
2017-07-06T10:20:37.770Z,1.90
2017-07-06T10:23:04.402Z,2.30
2017-07-06T10:25:30.979Z,2.30
2017-07-06T10:27:57.566Z,3.07
2017-07-06T10:30:24.149Z,2.50
2017-07-06T10:32:51.040Z,3.00
2017-07-06T10:35:17.581Z,2.47
2017-07-06T10:37:44.097Z,2.33
2017-07-06T10:40:10.666Z,2.23
2017-07-06T10:42:37.919Z,2.50
2017-07-06T10:45:05.206Z,2.40
2017-07-06T10:47:31.729Z,2.23
2017-07-06T10:49:58.224Z,2.10
2017-07-06T10:52:24.779Z,2.67
2017-07-06T10:54:51.299Z,2.40
2017-07-06T10:57:18.853Z,2.07
2017-07-06T10:59:45.391Z,2.37
2017-07-06T11:02:12.819Z,2.60
2017-07-06T11:04:39.325Z,2.63
2017-07-06T11:07:05.844Z,2.70
2017-07-06T11:09:32.417Z,3.30
2017-07-06T11:11:58.936Z,2.47
2017-07-06T11:14:25.595Z,1.97
2017-07-06T11:16:52.103Z,2.10
2017-07-06T11:19:18.657Z,2.60
2017-07-06T11:21:45.204Z,2.20
2017-07-06T11:24:11.732Z,2.07
2017-07-06T11:26:38.270Z,2.03
2017-07-06T11:29:04.932Z,2.20
2017-07-06T11:31:31.456Z,1.63
2017-07-06T11:33:58.768Z,2.27
2017-07-06T11:42:25.809Z,2.00
2017-07-06T11:44:52.266Z,1.90
2017-07-06T11:47:18.733Z,2.13
2017-07-06T11:49:45.241Z,2.77
2017-07-06T11:52:12.451Z,2.07
2017-07-06T11:54:38.984Z,1.93
2017-07-06T11:57:05.534Z,3.80
2017-07-06T11:59:32.009Z,3.17
2017-07-06T12:01:58.724Z,2.67
2017-07-06T12:04:25.222Z,3.03
2017-07-06T12:06:51.750Z,2.20
2017-07-06T12:09:18.279Z,2.90
2017-07-06T12:11:44.762Z,2.50
2017-07-06T12:14:11.322Z,2.80
2017-07-06T12:16:37.798Z,2.53
2017-07-06T12:19:04.273Z,2.10
2017-07-06T12:21:31.522Z,2.40
2017-07-06T12:23:58.739Z,2.20
2017-07-06T12:26:25.246Z,2.60
2017-07-06T12:28:51.736Z,2.40
2017-07-06T12:31:18.994Z,2.83
2017-07-06T12:33:45.492Z,2.70
2017-07-06T12:36:11.980Z,2.40
2017-07-06T12:38:38.511Z,2.03
2017-07-06T12:41:04.979Z,2.70
2017-07-06T12:43:31.475Z,2.00
2017-07-06T12:45:57.976Z,2.40
2017-07-06T12:48:25.199Z,2.27
2017-07-06T12:50:51.723Z,2.23
2017-07-06T12:53:18.191Z,2.10
2017-07-06T12:55:45.615Z,2.70
2017-07-06T12:58:12.147Z,2.03
2017-07-06T13:00:38.683Z,2.90
2017-07-06T13:03:05.181Z,2.43
2017-07-06T13:05:31.669Z,2.70
2017-07-06T13:07:58.217Z,2.60
2017-07-06T13:10:25.458Z,1.87
2017-07-06T13:12:52.678Z,2.20
2017-07-06T13:15:20.028Z,2.00
2017-07-06T13:17:46.504Z,1.80
2017-07-06T13:20:13.763Z,2.30
2017-07-06T13:22:40.249Z,2.47
2017-07-06T13:25:06.768Z,2.10
2017-07-06T13:27:33.244Z,2.43
2017-07-06T13:30:00.749Z,3.27
2017-07-06T13:32:27.223Z,2.20
2017-07-06T13:34:53.720Z,2.17
2017-07-06T13:37:20.364Z,2.10
2017-07-06T13:39:46.855Z,2.03
2017-07-06T13:42:13.358Z,2.27
2017-07-06T13:44:39.858Z,2.87
2017-07-06T13:47:06.351Z,2.53
2017-07-06T13:49:32.887Z,2.00
2017-07-06T13:51:59.519Z,3.13
2017-07-06T13:54:26.067Z,2.50
2017-07-06T13:56:52.538Z,2.50
2017-07-06T13:59:19.090Z,2.50
2017-07-06T14:01:45.567Z,2.80
2017-07-06T14:04:12.103Z,2.07
2017-07-06T14:06:38.650Z,2.93
2017-07-06T14:09:05.115Z,2.00
2017-07-06T14:11:31.634Z,2.57
2017-07-06T14:13:58.175Z,2.10
2017-07-06T14:16:24.913Z,2.23
2017-07-06T14:18:51.398Z,1.83
2017-07-06T14:21:17.886Z,1.80
2017-07-06T14:23:44.423Z,2.37
2017-07-06T14:26:10.903Z,2.20
2017-07-06T14:28:37.489Z,2.20
2017-07-06T14:31:03.979Z,2.40
2017-07-06T14:33:30.512Z,2.60
2017-07-06T14:35:57.006Z,2.27
2017-07-06T14:38:24.253Z,2.67
2017-07-06T14:40:51.523Z,2.57
2017-07-06T14:43:18.009Z,2.00
2017-07-06T14:45:44.478Z,2.00
2017-07-06T14:48:11.038Z,2.10
2017-07-06T14:50:37.543Z,2.20
2017-07-06T14:53:04.767Z,2.37
2017-07-06T14:55:31.396Z,2.80
2017-07-06T14:57:57.893Z,2.87
2017-07-06T15:00:24.361Z,2.60
2017-07-06T15:05:51.727Z,2.27
2017-07-06T15:08:18.211Z,2.60
2017-07-06T15:10:45.462Z,2.07
2017-07-06T15:13:12.722Z,2.00
2017-07-06T15:15:39.962Z,2.00
2017-07-06T15:18:07.223Z,2.30
2017-07-06T15:20:34.426Z,2.10
2017-07-06T15:23:00.947Z,1.67
2017-07-06T15:25:27.426Z,2.00
2017-07-06T15:27:55.003Z,1.70
2017-07-06T15:30:21.499Z,2.10
2017-07-06T15:32:47.972Z,2.10
2017-07-06T15:35:14.494Z,2.10
2017-07-06T15:37:41.705Z,1.97
2017-07-06T15:40:08.239Z,2.03
2017-07-06T15:42:34.727Z,2.10
2017-07-06T15:45:01.246Z,2.30
2017-07-06T15:47:28.492Z,2.23
2017-07-06T15:49:55.721Z,3.03
2017-07-06T15:52:22.512Z,2.13
2017-07-06T15:54:48.982Z,2.50
2017-07-06T15:57:15.464Z,2.23
2017-07-06T15:59:41.976Z,4.57
2017-07-06T16:02:09.246Z,3.13
2017-07-06T16:04:35.777Z,2.43
2017-07-06T16:07:02.287Z,2.43
2017-07-06T16:09:29.598Z,4.43
2017-07-06T16:11:56.074Z,3.40
2017-07-06T16:14:23.354Z,2.87
2017-07-06T16:16:49.852Z,2.33
2017-07-06T16:19:18.273Z,2.33
2017-07-06T16:21:44.801Z,4.07
2017-07-06T16:24:11.355Z,3.07
2017-07-06T16:26:37.871Z,3.20
2017-07-06T16:29:04.346Z,2.90
2017-07-06T16:31:30.840Z,3.00
2017-07-06T16:33:57.322Z,3.03
2017-07-06T16:36:23.940Z,2.67
2017-07-06T16:38:50.417Z,3.90
2017-07-06T16:41:16.952Z,4.53
2017-07-06T16:43:43.510Z,4.40
2017-07-06T16:46:09.997Z,2.40
2017-07-06T16:48:37.261Z,2.80
2017-07-06T16:51:04.530Z,2.97
2017-07-06T16:53:31.197Z,4.37
2017-07-06T16:55:57.651Z,3.50
2017-07-06T16:58:24.091Z,4.70
2017-07-06T17:00:50.591Z,3.40
2017-07-06T17:03:17.047Z,2.67
2017-07-06T17:05:43.559Z,3.00
2017-07-06T17:08:10.029Z,3.50
2017-07-06T17:10:37.424Z,2.93
2017-07-06T17:13:03.911Z,2.47
2017-07-06T17:15:30.386Z,2.80
2017-07-06T17:17:56.877Z,3.00
2017-07-06T17:20:24.077Z,3.40
2017-07-06T17:22:50.586Z,3.40
2017-07-06T17:25:17.074Z,3.10
2017-07-06T17:27:43.585Z,2.80
2017-07-06T17:30:10.060Z,2.73
2017-07-06T17:32:37.289Z,3.57
2017-07-06T17:35:03.789Z,3.30
2017-07-06T17:37:30.328Z,5.07
2017-07-06T17:39:56.912Z,5.23
2017-07-06T17:42:23.375Z,4.73
2017-07-06T17:44:50.077Z,4.70
2017-07-06T17:47:16.545Z,3.40
2017-07-06T17:49:43.071Z,2.73
2017-07-06T17:52:09.637Z,3.50
2017-07-06T17:54:36.113Z,4.00
2017-07-06T17:57:03.373Z,3.63
2017-07-06T17:59:29.868Z,3.20
2017-07-06T18:01:56.384Z,4.97
2017-07-06T18:04:22.885Z,6.60
2017-07-06T18:06:49.317Z,4.57
2017-07-06T18:09:15.837Z,4.23
2017-07-06T18:11:42.366Z,4.73
2017-07-06T18:14:09.619Z,3.83
2017-07-06T18:16:36.884Z,3.10
2017-07-06T18:19:03.382Z,3.90
2017-07-06T18:21:30.041Z,4.53
2017-07-06T18:23:57.259Z,4.10
2017-07-06T18:26:23.738Z,3.90
2017-07-06T18:28:50.251Z,3.90
2017-07-06T18:31:17.442Z,2.77
2017-07-06T18:33:43.923Z,3.40
2017-07-06T18:36:11.121Z,2.87
2017-07-06T18:38:37.634Z,2.90
2017-07-06T18:41:04.163Z,2.67
2017-07-06T18:43:30.710Z,2.97
2017-07-06T18:45:57.165Z,3.83
2017-07-06T18:48:23.641Z,2.77
2017-07-06T18:50:50.947Z,3.17
2017-07-06T18:53:17.459Z,2.53
2017-07-06T18:55:43.914Z,3.10
2017-07-06T18:58:10.456Z,3.43
2017-07-06T19:00:36.930Z,3.00
2017-07-06T19:03:04.176Z,2.60
2017-07-06T19:05:31.454Z,2.80
2017-07-06T19:07:57.962Z,3.00
2017-07-06T19:10:25.360Z,2.83
2017-07-06T19:12:51.845Z,3.07
2017-07-06T19:15:19.107Z,2.97
2017-07-06T19:17:45.655Z,3.50
2017-07-06T19:20:12.134Z,3.13
2017-07-06T19:22:38.664Z,2.63
2017-07-06T19:25:05.133Z,2.83
2017-07-06T19:27:32.397Z,2.50
2017-07-06T19:29:58.926Z,2.30
2017-07-06T19:32:25.478Z,2.73
2017-07-06T19:34:51.970Z,3.00
2017-07-06T19:37:18.471Z,2.50
2017-07-06T19:39:45.008Z,3.30
2017-07-06T19:42:11.494Z,3.17
2017-07-06T19:44:38.037Z,3.57
2017-07-06T19:47:04.552Z,3.90
2017-07-06T19:49:31.780Z,2.97
2017-07-06T19:51:58.325Z,3.43
2017-07-06T19:54:25.595Z,3.47
2017-07-06T19:56:52.128Z,3.80
2017-07-06T19:59:18.657Z,3.10
2017-07-06T20:01:45.196Z,3.70
2017-07-06T20:04:11.701Z,3.40
2017-07-06T20:06:38.215Z,3.60
2017-07-06T20:09:04.824Z,3.30
2017-07-06T20:11:31.322Z,3.13
2017-07-06T20:13:58.605Z,3.00
2017-07-06T20:16:25.111Z,5.30
2017-07-06T20:18:51.682Z,5.50
2017-07-06T20:21:18.170Z,5.67
2017-07-06T20:23:44.706Z,6.03
2017-07-06T20:26:11.945Z,5.80
2017-07-06T20:28:39.168Z,6.63
2017-07-06T20:31:05.686Z,6.37
2017-07-06T20:33:32.177Z,6.37
2017-07-06T20:35:58.705Z,7.67
2017-07-06T20:38:25.943Z,6.33
2017-07-06T20:40:52.473Z,6.70
2017-07-06T20:43:18.933Z,6.63
2017-07-06T20:45:45.542Z,5.70
2017-07-06T20:48:12.767Z,6.10
2017-07-06T20:50:39.225Z,6.27
2017-07-06T20:53:06.531Z,5.30
2017-07-06T20:55:33.007Z,4.83
2017-07-06T20:58:00.330Z,4.47
2017-07-06T21:00:26.857Z,4.70
2017-07-06T21:02:53.351Z,4.67
2017-07-06T21:05:19.928Z,5.03
2017-07-06T21:07:47.262Z,4.83
2017-07-06T21:10:13.786Z,5.37
2017-07-06T21:12:40.327Z,4.20
2017-07-06T21:15:06.775Z,4.37
2017-07-06T21:17:33.291Z,3.90
2017-07-06T21:19:59.807Z,4.27
2017-07-06T21:22:26.331Z,4.10
2017-07-06T21:24:52.816Z,4.37
2017-07-06T21:27:19.308Z,5.20
2017-07-06T21:29:45.825Z,5.10
2017-07-06T21:32:12.502Z,4.47
2017-07-06T21:34:39.021Z,4.97
2017-07-06T21:37:05.488Z,5.37
2017-07-06T21:39:31.979Z,5.53
2017-07-06T21:41:58.478Z,4.90
2017-07-06T21:44:25.733Z,5.20
2017-07-06T21:46:52.957Z,3.77
2017-07-06T21:49:19.467Z,4.43
2017-07-06T21:51:46.014Z,4.97
2017-07-06T21:54:12.727Z,5.10
2017-07-06T21:56:39.236Z,5.03
2017-07-06T21:59:05.736Z,4.73
2017-07-06T22:01:32.264Z,4.50
2017-07-06T22:03:58.746Z,5.97
2017-07-06T22:06:25.403Z,5.03
2017-07-06T22:08:51.916Z,3.53
2017-07-06T22:11:18.420Z,4.80
2017-07-06T22:13:45.700Z,3.90
2017-07-06T22:16:12.179Z,3.60
2017-07-06T22:18:38.712Z,3.30
2017-07-06T22:21:05.189Z,4.40
2017-07-06T22:23:31.739Z,4.00
2017-07-06T22:25:58.198Z,4.40
2017-07-06T22:28:24.699Z,4.80
2017-07-06T22:30:51.207Z,3.40
2017-07-06T22:33:18.439Z,4.30
2017-07-06T22:35:45.868Z,3.30
2017-07-06T22:38:12.442Z,3.50
2017-07-06T22:40:39.658Z,4.33
2017-07-06T22:43:06.223Z,4.13
2017-07-06T22:45:33.524Z,3.43
2017-07-06T22:48:00.022Z,4.27
2017-07-06T22:50:26.528Z,4.20
2017-07-06T22:52:53.065Z,4.50
2017-07-06T22:55:20.310Z,3.23
2017-07-06T22:57:46.802Z,3.13
2017-07-06T23:00:13.393Z,3.30
2017-07-06T23:02:40.647Z,3.27
2017-07-06T23:05:07.860Z,3.00
2017-07-06T23:07:34.357Z,3.50
2017-07-06T23:10:00.915Z,2.87
2017-07-06T23:12:27.464Z,3.30
2017-07-06T23:14:53.935Z,4.10
2017-07-06T23:17:20.458Z,3.60
2017-07-06T23:19:46.958Z,3.63
2017-07-06T23:22:13.743Z,3.00
2017-07-06T23:24:40.223Z,3.90
2017-07-06T23:27:06.696Z,3.57
2017-07-06T23:29:33.950Z,3.30
2017-07-06T23:32:00.459Z,3.47
2017-07-06T23:34:26.959Z,3.50
2017-07-06T23:36:53.444Z,3.60
2017-07-06T23:39:20.702Z,3.03
2017-07-06T23:41:47.922Z,2.27
2017-07-06T23:44:14.419Z,3.00
2017-07-06T23:46:40.931Z,3.70
2017-07-06T23:49:07.455Z,3.60
2017-07-06T23:51:33.916Z,3.60
2017-07-06T23:54:00.443Z,3.20
2017-07-06T23:56:26.962Z,3.00
2017-07-06T23:58:53.629Z,2.40
